sensor_id;sensor_type;location;lat;lon;timestamp;P1;durP1;ratioP1;P2;durP2;ratioP2
25345;SDS011;13300;51.032;3.710;2023-01-19T00:01:32;18.25;;;8.60;;
25345;SDS011;13300;51.032;3.710;2023-01-19T00:03:57;13.93;;;8.52;;
25345;SDS011;13300;51.032;3.710;2023-01-19T00:06:23;16.75;;;8.98;;
25345;SDS011;13300;51.032;3.710;2023-01-19T00:08:49;19.88;;;9.55;;
25345;SDS011;13300;51.032;3.710;2023-01-19T00:11:14;15.50;;;8.60;;
25345;SDS011;13300;51.032;3.710;2023-01-19T00:13:43;13.60;;;8.82;;
25345;SDS011;13300;51.032;3.710;2023-01-19T00:16:16;15.02;;;8.80;;
25345;SDS011;13300;51.032;3.710;2023-01-19T00:18:46;20.77;;;10.32;;
25345;SDS011;13300;51.032;3.710;2023-01-19T00:21:12;17.55;;;8.98;;
25345;SDS011;13300;51.032;3.710;2023-01-19T00:23:39;18.85;;;8.90;;
25345;SDS011;13300;51.032;3.710;2023-01-19T00:26:05;19.10;;;9.43;;
25345;SDS011;13300;51.032;3.710;2023-01-19T00:28:30;17.63;;;9.13;;
25345;SDS011;13300;51.032;3.710;2023-01-19T00:30:56;16.48;;;8.93;;
25345;SDS011;13300;51.032;3.710;2023-01-19T00:33:22;16.67;;;9.73;;
25345;SDS011;13300;51.032;3.710;2023-01-19T00:35:51;19.50;;;9.38;;
25345;SDS011;13300;51.032;3.710;2023-01-19T00:38:19;19.55;;;9.77;;
25345;SDS011;13300;51.032;3.710;2023-01-19T00:40:45;17.70;;;9.57;;
25345;SDS011;13300;51.032;3.710;2023-01-19T00:43:11;15.32;;;9.60;;
25345;SDS011;13300;51.032;3.710;2023-01-19T00:45:37;19.83;;;10.23;;
25345;SDS011;13300;51.032;3.710;2023-01-19T00:48:03;17.70;;;10.23;;
25345;SDS011;13300;51.032;3.710;2023-01-19T00:50:30;15.77;;;9.90;;
25345;SDS011;13300;51.032;3.710;2023-01-19T00:52:56;15.05;;;9.38;;
25345;SDS011;13300;51.032;3.710;2023-01-19T00:55:25;18.05;;;10.25;;
25345;SDS011;13300;51.032;3.710;2023-01-19T00:57:54;19.27;;;10.23;;
25345;SDS011;13300;51.032;3.710;2023-01-19T01:00:21;18.48;;;9.38;;
25345;SDS011;13300;51.032;3.710;2023-01-19T01:02:49;18.90;;;9.63;;
25345;SDS011;13300;51.032;3.710;2023-01-19T01:05:15;16.38;;;9.60;;
25345;SDS011;13300;51.032;3.710;2023-01-19T01:07:42;20.92;;;10.30;;
25345;SDS011;13300;51.032;3.710;2023-01-19T01:10:14;23.05;;;10.02;;
25345;SDS011;13300;51.032;3.710;2023-01-19T01:12:42;21.73;;;10.65;;
25345;SDS011;13300;51.032;3.710;2023-01-19T01:23:03;16.08;;;9.30;;
25345;SDS011;13300;51.032;3.710;2023-01-19T01:25:29;26.63;;;10.18;;
25345;SDS011;13300;51.032;3.710;2023-01-19T01:27:55;19.15;;;9.70;;
25345;SDS011;13300;51.032;3.710;2023-01-19T01:30:21;22.67;;;10.48;;
25345;SDS011;13300;51.032;3.710;2023-01-19T01:32:47;23.63;;;10.82;;
25345;SDS011;13300;51.032;3.710;2023-01-19T01:35:13;20.90;;;10.80;;
25345;SDS011;13300;51.032;3.710;2023-01-19T01:37:40;21.65;;;11.05;;
25345;SDS011;13300;51.032;3.710;2023-01-19T01:40:08;21.60;;;11.43;;
25345;SDS011;13300;51.032;3.710;2023-01-19T01:42:36;21.65;;;10.55;;
25345;SDS011;13300;51.032;3.710;2023-01-19T01:48:01;17.60;;;9.65;;
25345;SDS011;13300;51.032;3.710;2023-01-19T01:53:47;25.83;;;10.48;;
25345;SDS011;13300;51.032;3.710;2023-01-19T01:56:33;20.48;;;10.00;;
25345;SDS011;13300;51.032;3.710;2023-01-19T01:59:04;24.30;;;10.55;;
25345;SDS011;13300;51.032;3.710;2023-01-19T02:01:33;23.83;;;10.18;;
25345;SDS011;13300;51.032;3.710;2023-01-19T02:04:18;22.20;;;9.82;;
25345;SDS011;13300;51.032;3.710;2023-01-19T02:06:44;22.95;;;9.27;;
25345;SDS011;13300;51.032;3.710;2023-01-19T02:09:29;21.95;;;9.30;;
25345;SDS011;13300;51.032;3.710;2023-01-19T02:12:17;23.35;;;9.57;;
25345;SDS011;13300;51.032;3.710;2023-01-19T02:15:01;17.90;;;9.00;;
25345;SDS011;13300;51.032;3.710;2023-01-19T02:17:27;19.15;;;9.73;;
25345;SDS011;13300;51.032;3.710;2023-01-19T02:19:53;20.67;;;9.68;;
25345;SDS011;13300;51.032;3.710;2023-01-19T02:22:19;22.23;;;10.32;;
25345;SDS011;13300;51.032;3.710;2023-01-19T02:24:51;22.40;;;9.80;;
25345;SDS011;13300;51.032;3.710;2023-01-19T02:27:17;22.23;;;9.73;;
25345;SDS011;13300;51.032;3.710;2023-01-19T02:29:44;24.75;;;9.68;;
25345;SDS011;13300;51.032;3.710;2023-01-19T02:32:10;17.23;;;8.57;;
25345;SDS011;13300;51.032;3.710;2023-01-19T02:34:36;16.52;;;8.65;;
25345;SDS011;13300;51.032;3.710;2023-01-19T02:37:04;19.85;;;9.32;;
25345;SDS011;13300;51.032;3.710;2023-01-19T02:39:37;22.73;;;9.35;;
25345;SDS011;13300;51.032;3.710;2023-01-19T02:42:16;19.23;;;9.55;;
25345;SDS011;13300;51.032;3.710;2023-01-19T02:44:46;23.60;;;9.57;;
25345;SDS011;13300;51.032;3.710;2023-01-19T02:47:14;20.98;;;9.60;;
25345;SDS011;13300;51.032;3.710;2023-01-19T02:49:40;17.23;;;9.25;;
25345;SDS011;13300;51.032;3.710;2023-01-19T02:52:07;17.75;;;9.13;;
25345;SDS011;13300;51.032;3.710;2023-01-19T02:54:42;20.52;;;8.65;;
25345;SDS011;13300;51.032;3.710;2023-01-19T03:00:40;15.90;;;8.15;;
25345;SDS011;13300;51.032;3.710;2023-01-19T03:03:36;21.10;;;8.50;;
25345;SDS011;13300;51.032;3.710;2023-01-19T03:09:23;18.50;;;7.35;;
25345;SDS011;13300;51.032;3.710;2023-01-19T03:11:54;14.73;;;7.72;;
25345;SDS011;13300;51.032;3.710;2023-01-19T03:14:39;19.27;;;7.97;;
25345;SDS011;13300;51.032;3.710;2023-01-19T03:17:10;20.42;;;8.02;;
25345;SDS011;13300;51.032;3.710;2023-01-19T03:19:39;14.02;;;7.15;;
25345;SDS011;13300;51.032;3.710;2023-01-19T03:22:08;18.65;;;7.80;;
25345;SDS011;13300;51.032;3.710;2023-01-19T03:24:41;17.77;;;7.55;;
25345;SDS011;13300;51.032;3.710;2023-01-19T03:27:10;16.80;;;7.43;;
25345;SDS011;13300;51.032;3.710;2023-01-19T03:30:08;14.45;;;7.93;;
25345;SDS011;13300;51.032;3.710;2023-01-19T03:32:47;15.32;;;7.05;;
25345;SDS011;13300;51.032;3.710;2023-01-19T03:35:15;19.13;;;8.00;;
25345;SDS011;13300;51.032;3.710;2023-01-19T03:37:46;16.45;;;7.28;;
25345;SDS011;13300;51.032;3.710;2023-01-19T03:40:14;17.50;;;7.20;;
25345;SDS011;13300;51.032;3.710;2023-01-19T03:42:41;15.10;;;7.18;;
25345;SDS011;13300;51.032;3.710;2023-01-19T03:45:08;16.70;;;7.68;;
25345;SDS011;13300;51.032;3.710;2023-01-19T03:47:36;17.25;;;8.40;;
25345;SDS011;13300;51.032;3.710;2023-01-19T03:50:03;22.00;;;7.97;;
25345;SDS011;13300;51.032;3.710;2023-01-19T03:52:34;15.57;;;7.38;;
25345;SDS011;13300;51.032;3.710;2023-01-19T03:55:00;20.92;;;7.78;;
25345;SDS011;13300;51.032;3.710;2023-01-19T03:57:27;15.98;;;8.00;;
25345;SDS011;13300;51.032;3.710;2023-01-19T03:59:53;14.68;;;8.18;;
25345;SDS011;13300;51.032;3.710;2023-01-19T04:02:19;13.68;;;7.85;;
25345;SDS011;13300;51.032;3.710;2023-01-19T04:04:45;18.15;;;7.57;;
25345;SDS011;13300;51.032;3.710;2023-01-19T04:07:11;16.92;;;7.35;;
25345;SDS011;13300;51.032;3.710;2023-01-19T04:09:36;17.25;;;8.57;;
25345;SDS011;13300;51.032;3.710;2023-01-19T04:12:02;15.23;;;7.50;;
25345;SDS011;13300;51.032;3.710;2023-01-19T04:14:28;18.58;;;8.57;;
25345;SDS011;13300;51.032;3.710;2023-01-19T04:16:54;23.08;;;8.68;;
25345;SDS011;13300;51.032;3.710;2023-01-19T04:19:20;21.25;;;7.63;;
25345;SDS011;13300;51.032;3.710;2023-01-19T04:21:49;16.45;;;9.68;;
25345;SDS011;13300;51.032;3.710;2023-01-19T04:24:15;19.45;;;9.50;;
25345;SDS011;13300;51.032;3.710;2023-01-19T04:26:41;22.60;;;10.23;;
25345;SDS011;13300;51.032;3.710;2023-01-19T04:29:07;24.63;;;10.10;;
25345;SDS011;13300;51.032;3.710;2023-01-19T04:31:33;22.02;;;10.00;;
25345;SDS011;13300;51.032;3.710;2023-01-19T04:33:59;21.67;;;11.02;;
25345;SDS011;13300;51.032;3.710;2023-01-19T04:36:26;23.13;;;11.52;;
25345;SDS011;13300;51.032;3.710;2023-01-19T04:38:52;25.70;;;9.73;;
25345;SDS011;13300;51.032;3.710;2023-01-19T04:41:18;32.67;;;10.98;;
25345;SDS011;13300;51.032;3.710;2023-01-19T04:43:44;26.38;;;11.18;;
25345;SDS011;13300;51.032;3.710;2023-01-19T04:46:11;31.20;;;11.77;;
25345;SDS011;13300;51.032;3.710;2023-01-19T04:48:38;26.58;;;12.45;;
25345;SDS011;13300;51.032;3.710;2023-01-19T04:51:03;25.80;;;11.65;;
25345;SDS011;13300;51.032;3.710;2023-01-19T04:53:29;22.65;;;10.65;;
25345;SDS011;13300;51.032;3.710;2023-01-19T04:55:55;30.23;;;12.73;;
25345;SDS011;13300;51.032;3.710;2023-01-19T04:58:21;22.75;;;11.07;;
25345;SDS011;13300;51.032;3.710;2023-01-19T05:00:47;32.65;;;12.73;;
25345;SDS011;13300;51.032;3.710;2023-01-19T05:03:15;32.97;;;12.35;;
25345;SDS011;13300;51.032;3.710;2023-01-19T05:05:40;27.02;;;11.48;;
25345;SDS011;13300;51.032;3.710;2023-01-19T05:08:06;21.50;;;12.60;;
25345;SDS011;13300;51.032;3.710;2023-01-19T05:10:31;31.08;;;12.95;;
25345;SDS011;13300;51.032;3.710;2023-01-19T05:12:57;27.30;;;11.93;;
25345;SDS011;13300;51.032;3.710;2023-01-19T05:15:23;37.85;;;13.98;;
25345;SDS011;13300;51.032;3.710;2023-01-19T05:17:48;27.40;;;13.45;;
25345;SDS011;13300;51.032;3.710;2023-01-19T05:20:14;27.52;;;12.88;;
25345;SDS011;13300;51.032;3.710;2023-01-19T05:22:41;29.52;;;12.60;;
25345;SDS011;13300;51.032;3.710;2023-01-19T05:25:07;28.33;;;12.30;;
25345;SDS011;13300;51.032;3.710;2023-01-19T05:27:33;32.30;;;12.50;;
25345;SDS011;13300;51.032;3.710;2023-01-19T05:29:59;31.40;;;12.70;;
25345;SDS011;13300;51.032;3.710;2023-01-19T05:32:25;28.80;;;13.70;;
25345;SDS011;13300;51.032;3.710;2023-01-19T05:34:51;33.88;;;14.43;;
25345;SDS011;13300;51.032;3.710;2023-01-19T05:37:16;29.48;;;13.68;;
25345;SDS011;13300;51.032;3.710;2023-01-19T05:39:42;35.42;;;15.15;;
25345;SDS011;13300;51.032;3.710;2023-01-19T05:42:08;34.17;;;14.82;;
25345;SDS011;13300;51.032;3.710;2023-01-19T05:44:33;31.65;;;14.40;;
25345;SDS011;13300;51.032;3.710;2023-01-19T05:46:59;34.58;;;15.15;;
25345;SDS011;13300;51.032;3.710;2023-01-19T05:49:24;30.15;;;14.27;;
25345;SDS011;13300;51.032;3.710;2023-01-19T05:51:50;30.95;;;13.68;;
25345;SDS011;13300;51.032;3.710;2023-01-19T05:54:16;37.00;;;14.52;;
25345;SDS011;13300;51.032;3.710;2023-01-19T05:56:41;28.38;;;13.40;;
25345;SDS011;13300;51.032;3.710;2023-01-19T05:59:08;33.25;;;14.02;;
25345;SDS011;13300;51.032;3.710;2023-01-19T06:01:34;36.63;;;14.63;;
25345;SDS011;13300;51.032;3.710;2023-01-19T06:04:01;34.88;;;14.25;;
25345;SDS011;13300;51.032;3.710;2023-01-19T06:06:27;31.67;;;14.13;;
25345;SDS011;13300;51.032;3.710;2023-01-19T06:08:53;31.27;;;13.82;;
25345;SDS011;13300;51.032;3.710;2023-01-19T06:11:19;36.67;;;15.35;;
25345;SDS011;13300;51.032;3.710;2023-01-19T06:13:45;34.55;;;14.43;;
25345;SDS011;13300;51.032;3.710;2023-01-19T06:16:11;33.92;;;13.60;;
25345;SDS011;13300;51.032;3.710;2023-01-19T06:18:37;29.13;;;13.57;;
25345;SDS011;13300;51.032;3.710;2023-01-19T06:21:05;36.47;;;14.10;;
25345;SDS011;13300;51.032;3.710;2023-01-19T06:23:32;25.60;;;13.50;;
25345;SDS011;13300;51.032;3.710;2023-01-19T06:25:59;25.23;;;13.52;;
25345;SDS011;13300;51.032;3.710;2023-01-19T06:28:25;35.90;;;14.18;;
25345;SDS011;13300;51.032;3.710;2023-01-19T06:30:51;31.65;;;14.20;;
25345;SDS011;13300;51.032;3.710;2023-01-19T06:33:18;36.20;;;14.68;;
25345;SDS011;13300;51.032;3.710;2023-01-19T06:35:47;30.25;;;13.25;;
25345;SDS011;13300;51.032;3.710;2023-01-19T06:38:14;28.17;;;13.10;;
25345;SDS011;13300;51.032;3.710;2023-01-19T06:40:44;36.83;;;14.17;;
25345;SDS011;13300;51.032;3.710;2023-01-19T06:43:15;32.25;;;13.77;;
25345;SDS011;13300;51.032;3.710;2023-01-19T06:45:40;30.65;;;13.90;;
25345;SDS011;13300;51.032;3.710;2023-01-19T06:48:09;34.90;;;13.85;;
25345;SDS011;13300;51.032;3.710;2023-01-19T06:50:35;34.53;;;15.07;;
25345;SDS011;13300;51.032;3.710;2023-01-19T06:53:01;34.22;;;14.27;;
25345;SDS011;13300;51.032;3.710;2023-01-19T06:55:26;36.20;;;14.95;;
25345;SDS011;13300;51.032;3.710;2023-01-19T06:57:56;37.28;;;15.15;;
25345;SDS011;13300;51.032;3.710;2023-01-19T07:00:23;28.88;;;13.85;;
25345;SDS011;13300;51.032;3.710;2023-01-19T07:02:49;35.45;;;14.95;;
25345;SDS011;13300;51.032;3.710;2023-01-19T07:05:15;38.30;;;15.43;;
25345;SDS011;13300;51.032;3.710;2023-01-19T07:07:41;35.92;;;14.82;;
25345;SDS011;13300;51.032;3.710;2023-01-19T07:10:09;37.63;;;14.90;;
25345;SDS011;13300;51.032;3.710;2023-01-19T07:12:40;36.92;;;14.35;;
25345;SDS011;13300;51.032;3.710;2023-01-19T07:15:06;32.30;;;13.90;;
25345;SDS011;13300;51.032;3.710;2023-01-19T07:17:33;35.85;;;14.85;;
25345;SDS011;13300;51.032;3.710;2023-01-19T07:19:59;35.75;;;14.77;;
25345;SDS011;13300;51.032;3.710;2023-01-19T07:22:24;30.48;;;15.07;;
25345;SDS011;13300;51.032;3.710;2023-01-19T07:24:50;33.17;;;14.80;;
25345;SDS011;13300;51.032;3.710;2023-01-19T07:27:16;34.75;;;14.68;;
25345;SDS011;13300;51.032;3.710;2023-01-19T07:29:41;36.90;;;16.10;;
25345;SDS011;13300;51.032;3.710;2023-01-19T07:32:07;41.28;;;16.52;;
25345;SDS011;13300;51.032;3.710;2023-01-19T07:34:33;39.03;;;15.63;;
25345;SDS011;13300;51.032;3.710;2023-01-19T07:36:59;44.70;;;16.33;;
25345;SDS011;13300;51.032;3.710;2023-01-19T07:39:25;43.38;;;16.92;;
25345;SDS011;13300;51.032;3.710;2023-01-19T07:41:51;44.35;;;17.02;;
25345;SDS011;13300;51.032;3.710;2023-01-19T07:44:17;42.65;;;17.73;;
25345;SDS011;13300;51.032;3.710;2023-01-19T07:46:43;42.47;;;17.65;;
25345;SDS011;13300;51.032;3.710;2023-01-19T07:49:08;42.13;;;19.83;;
25345;SDS011;13300;51.032;3.710;2023-01-19T07:51:34;42.05;;;21.58;;
25345;SDS011;13300;51.032;3.710;2023-01-19T07:54:00;47.72;;;23.50;;
25345;SDS011;13300;51.032;3.710;2023-01-19T07:56:26;46.97;;;23.83;;
25345;SDS011;13300;51.032;3.710;2023-01-19T07:58:54;49.15;;;24.33;;
25345;SDS011;13300;51.032;3.710;2023-01-19T08:01:20;49.35;;;24.98;;
25345;SDS011;13300;51.032;3.710;2023-01-19T08:03:49;50.42;;;23.90;;
25345;SDS011;13300;51.032;3.710;2023-01-19T08:06:19;49.08;;;23.88;;
25345;SDS011;13300;51.032;3.710;2023-01-19T08:08:51;52.60;;;24.95;;
25345;SDS011;13300;51.032;3.710;2023-01-19T08:11:17;45.83;;;21.90;;
25345;SDS011;13300;51.032;3.710;2023-01-19T08:13:42;37.30;;;20.38;;
25345;SDS011;13300;51.032;3.710;2023-01-19T08:16:08;43.40;;;19.52;;
25345;SDS011;13300;51.032;3.710;2023-01-19T08:18:34;43.17;;;19.23;;
25345;SDS011;13300;51.032;3.710;2023-01-19T08:21:00;36.50;;;18.52;;
25345;SDS011;13300;51.032;3.710;2023-01-19T08:23:26;38.53;;;19.15;;
25345;SDS011;13300;51.032;3.710;2023-01-19T08:25:52;42.17;;;18.05;;
25345;SDS011;13300;51.032;3.710;2023-01-19T08:28:18;37.47;;;17.83;;
25345;SDS011;13300;51.032;3.710;2023-01-19T08:30:44;37.65;;;17.45;;
25345;SDS011;13300;51.032;3.710;2023-01-19T08:33:17;42.08;;;18.67;;
25345;SDS011;13300;51.032;3.710;2023-01-19T08:35:46;38.08;;;17.98;;
25345;SDS011;13300;51.032;3.710;2023-01-19T08:38:13;39.60;;;17.35;;
25345;SDS011;13300;51.032;3.710;2023-01-19T08:40:39;27.10;;;13.18;;
25345;SDS011;13300;51.032;3.710;2023-01-19T08:43:15;23.80;;;11.85;;
25345;SDS011;13300;51.032;3.710;2023-01-19T08:45:42;23.92;;;12.10;;
25345;SDS011;13300;51.032;3.710;2023-01-19T08:48:14;22.60;;;10.75;;
25345;SDS011;13300;51.032;3.710;2023-01-19T08:50:41;26.08;;;12.07;;
25345;SDS011;13300;51.032;3.710;2023-01-19T08:53:09;27.65;;;13.43;;
25345;SDS011;13300;51.032;3.710;2023-01-19T08:55:35;29.40;;;13.85;;
25345;SDS011;13300;51.032;3.710;2023-01-19T08:58:02;30.48;;;14.85;;
25345;SDS011;13300;51.032;3.710;2023-01-19T09:00:28;36.13;;;16.55;;
25345;SDS011;13300;51.032;3.710;2023-01-19T09:02:58;39.90;;;17.45;;
25345;SDS011;13300;51.032;3.710;2023-01-19T09:05:28;32.17;;;16.85;;
25345;SDS011;13300;51.032;3.710;2023-01-19T09:08:01;34.53;;;15.45;;
25345;SDS011;13300;51.032;3.710;2023-01-19T09:10:28;32.20;;;14.07;;
25345;SDS011;13300;51.032;3.710;2023-01-19T09:13:00;32.33;;;14.65;;
25345;SDS011;13300;51.032;3.710;2023-01-19T09:15:28;32.42;;;15.05;;
25345;SDS011;13300;51.032;3.710;2023-01-19T09:17:54;39.38;;;14.23;;
25345;SDS011;13300;51.032;3.710;2023-01-19T09:20:20;35.67;;;16.15;;
25345;SDS011;13300;51.032;3.710;2023-01-19T09:22:47;35.63;;;15.23;;
25345;SDS011;13300;51.032;3.710;2023-01-19T09:25:13;34.67;;;16.55;;
25345;SDS011;13300;51.032;3.710;2023-01-19T09:27:39;32.28;;;15.45;;
25345;SDS011;13300;51.032;3.710;2023-01-19T09:30:04;36.80;;;14.98;;
25345;SDS011;13300;51.032;3.710;2023-01-19T09:32:31;33.83;;;14.75;;
25345;SDS011;13300;51.032;3.710;2023-01-19T09:34:56;33.05;;;14.65;;
25345;SDS011;13300;51.032;3.710;2023-01-19T09:37:22;43.30;;;17.20;;
25345;SDS011;13300;51.032;3.710;2023-01-19T09:39:48;40.28;;;15.55;;
25345;SDS011;13300;51.032;3.710;2023-01-19T09:44:48;37.58;;;16.02;;
25345;SDS011;13300;51.032;3.710;2023-01-19T09:47:15;39.40;;;16.30;;
25345;SDS011;13300;51.032;3.710;2023-01-19T09:49:57;41.83;;;16.27;;
25345;SDS011;13300;51.032;3.710;2023-01-19T09:52:40;39.90;;;17.15;;
25345;SDS011;13300;51.032;3.710;2023-01-19T09:55:22;40.22;;;17.23;;
25345;SDS011;13300;51.032;3.710;2023-01-19T09:57:50;45.10;;;17.83;;
25345;SDS011;13300;51.032;3.710;2023-01-19T10:00:16;38.53;;;17.08;;
25345;SDS011;13300;51.032;3.710;2023-01-19T10:07:56;41.17;;;17.63;;
25345;SDS011;13300;51.032;3.710;2023-01-19T10:10:33;49.00;;;18.20;;
25345;SDS011;13300;51.032;3.710;2023-01-19T10:18:23;34.95;;;16.85;;
25345;SDS011;13300;51.032;3.710;2023-01-19T10:21:16;36.70;;;15.27;;
25345;SDS011;13300;51.032;3.710;2023-01-19T10:23:54;36.75;;;16.05;;
25345;SDS011;13300;51.032;3.710;2023-01-19T10:26:32;31.58;;;14.63;;
25345;SDS011;13300;51.032;3.710;2023-01-19T10:32:16;35.15;;;16.65;;
25345;SDS011;13300;51.032;3.710;2023-01-19T10:34:59;34.97;;;16.38;;
25345;SDS011;13300;51.032;3.710;2023-01-19T10:37:45;34.60;;;15.38;;
25345;SDS011;13300;51.032;3.710;2023-01-19T10:42:43;37.00;;;16.08;;
25345;SDS011;13300;51.032;3.710;2023-01-19T10:47:42;31.90;;;16.80;;
25345;SDS011;13300;51.032;3.710;2023-01-19T10:50:21;40.22;;;16.40;;
25345;SDS011;13300;51.032;3.710;2023-01-19T10:52:58;43.17;;;18.70;;
25345;SDS011;13300;51.032;3.710;2023-01-19T10:55:35;36.50;;;18.50;;
25345;SDS011;13300;51.032;3.710;2023-01-19T10:58:04;36.70;;;19.42;;
25345;SDS011;13300;51.032;3.710;2023-01-19T11:00:41;37.80;;;17.77;;
25345;SDS011;13300;51.032;3.710;2023-01-19T11:03:23;43.97;;;19.45;;
25345;SDS011;13300;51.032;3.710;2023-01-19T11:05:53;41.75;;;21.25;;
25345;SDS011;13300;51.032;3.710;2023-01-19T11:08:42;41.70;;;19.42;;
25345;SDS011;13300;51.032;3.710;2023-01-19T11:11:09;43.10;;;21.65;;
25345;SDS011;13300;51.032;3.710;2023-01-19T11:13:39;42.50;;;21.33;;
25345;SDS011;13300;51.032;3.710;2023-01-19T11:18:53;32.05;;;16.10;;
25345;SDS011;13300;51.032;3.710;2023-01-19T11:21:21;31.30;;;13.15;;
25345;SDS011;13300;51.032;3.710;2023-01-19T11:23:52;21.73;;;13.23;;
25345;SDS011;13300;51.032;3.710;2023-01-19T11:29:14;24.77;;;13.95;;
25345;SDS011;13300;51.032;3.710;2023-01-19T11:31:45;29.45;;;14.68;;
25345;SDS011;13300;51.032;3.710;2023-01-19T11:34:31;27.38;;;14.07;;
25345;SDS011;13300;51.032;3.710;2023-01-19T11:37:03;25.77;;;15.02;;
25345;SDS011;13300;51.032;3.710;2023-01-19T11:39:52;24.77;;;13.77;;
25345;SDS011;13300;51.032;3.710;2023-01-19T11:42:21;23.75;;;13.18;;
25345;SDS011;13300;51.032;3.710;2023-01-19T11:47:23;21.85;;;11.15;;
25345;SDS011;13300;51.032;3.710;2023-01-19T11:50:11;24.00;;;11.85;;
25345;SDS011;13300;51.032;3.710;2023-01-19T11:52:40;20.95;;;11.05;;
25345;SDS011;13300;51.032;3.710;2023-01-19T11:57:47;17.83;;;11.23;;
25345;SDS011;13300;51.032;3.710;2023-01-19T12:00:27;20.08;;;11.20;;
25345;SDS011;13300;51.032;3.710;2023-01-19T12:03:30;24.33;;;10.70;;
25345;SDS011;13300;51.032;3.710;2023-01-19T12:05:58;24.13;;;11.77;;
25345;SDS011;13300;51.032;3.710;2023-01-19T12:08:34;21.73;;;11.00;;
25345;SDS011;13300;51.032;3.710;2023-01-19T12:11:04;20.50;;;10.10;;
25345;SDS011;13300;51.032;3.710;2023-01-19T12:13:32;19.25;;;10.43;;
25345;SDS011;13300;51.032;3.710;2023-01-19T12:16:08;16.85;;;10.32;;
25345;SDS011;13300;51.032;3.710;2023-01-19T12:18:39;19.30;;;10.50;;
25345;SDS011;13300;51.032;3.710;2023-01-19T12:21:10;18.02;;;10.30;;
25345;SDS011;13300;51.032;3.710;2023-01-19T12:23:40;21.05;;;11.30;;
25345;SDS011;13300;51.032;3.710;2023-01-19T12:28:52;19.73;;;11.88;;
25345;SDS011;13300;51.032;3.710;2023-01-19T12:31:25;21.65;;;10.75;;
25345;SDS011;13300;51.032;3.710;2023-01-19T12:33:51;23.27;;;11.55;;
25345;SDS011;13300;51.032;3.710;2023-01-19T12:39:04;24.25;;;13.25;;
25345;SDS011;13300;51.032;3.710;2023-01-19T12:44:33;24.20;;;13.70;;
25345;SDS011;13300;51.032;3.710;2023-01-19T12:46:57;22.83;;;12.75;;
25345;SDS011;13300;51.032;3.710;2023-01-19T12:49:54;24.90;;;13.15;;
25345;SDS011;13300;51.032;3.710;2023-01-19T12:54:54;23.58;;;11.48;;
25345;SDS011;13300;51.032;3.710;2023-01-19T12:57:31;16.65;;;10.20;;
25345;SDS011;13300;51.032;3.710;2023-01-19T12:59:58;19.95;;;11.48;;
25345;SDS011;13300;51.032;3.710;2023-01-19T13:02:49;20.27;;;10.60;;
25345;SDS011;13300;51.032;3.710;2023-01-19T13:05:18;22.45;;;11.48;;
25345;SDS011;13300;51.032;3.710;2023-01-19T13:13:39;18.55;;;10.35;;
25345;SDS011;13300;51.032;3.710;2023-01-19T13:18:46;16.95;;;10.45;;
25345;SDS011;13300;51.032;3.710;2023-01-19T13:24:04;19.70;;;10.55;;
25345;SDS011;13300;51.032;3.710;2023-01-19T13:26:32;20.75;;;11.40;;
25345;SDS011;13300;51.032;3.710;2023-01-19T13:29:07;18.48;;;10.20;;
25345;SDS011;13300;51.032;3.710;2023-01-19T13:31:38;18.55;;;10.23;;
25345;SDS011;13300;51.032;3.710;2023-01-19T13:34:13;20.20;;;10.75;;
25345;SDS011;13300;51.032;3.710;2023-01-19T13:36:43;20.00;;;11.02;;
25345;SDS011;13300;51.032;3.710;2023-01-19T13:39:19;17.17;;;10.05;;
25345;SDS011;13300;51.032;3.710;2023-01-19T13:41:46;20.25;;;10.45;;
25345;SDS011;13300;51.032;3.710;2023-01-19T13:44:22;21.92;;;10.10;;
25345;SDS011;13300;51.032;3.710;2023-01-19T13:47:03;20.40;;;10.90;;
25345;SDS011;13300;51.032;3.710;2023-01-19T13:49:38;19.33;;;10.57;;
25345;SDS011;13300;51.032;3.710;2023-01-19T13:54:48;19.27;;;11.52;;
25345;SDS011;13300;51.032;3.710;2023-01-19T13:57:23;22.38;;;12.75;;
25345;SDS011;13300;51.032;3.710;2023-01-19T14:02:35;21.40;;;11.73;;
25345;SDS011;13300;51.032;3.710;2023-01-19T14:08:02;24.30;;;12.23;;
25345;SDS011;13300;51.032;3.710;2023-01-19T14:10:44;24.15;;;13.38;;
25345;SDS011;13300;51.032;3.710;2023-01-19T14:15:47;23.58;;;12.45;;
25345;SDS011;13300;51.032;3.710;2023-01-19T14:20:40;26.70;;;13.98;;
25345;SDS011;13300;51.032;3.710;2023-01-19T14:26:03;28.77;;;14.65;;
25345;SDS011;13300;51.032;3.710;2023-01-19T14:28:35;24.08;;;13.60;;
25345;SDS011;13300;51.032;3.710;2023-01-19T14:33:45;24.52;;;13.55;;
25345;SDS011;13300;51.032;3.710;2023-01-19T14:38:41;28.40;;;14.65;;
25345;SDS011;13300;51.032;3.710;2023-01-19T14:41:10;23.73;;;13.40;;
25345;SDS011;13300;51.032;3.710;2023-01-19T14:43:41;27.45;;;13.82;;
25345;SDS011;13300;51.032;3.710;2023-01-19T14:46:13;25.00;;;13.00;;
25345;SDS011;13300;51.032;3.710;2023-01-19T14:48:46;24.30;;;14.18;;
25345;SDS011;13300;51.032;3.710;2023-01-19T14:51:16;26.75;;;13.88;;
25345;SDS011;13300;51.032;3.710;2023-01-19T14:53:48;28.65;;;14.32;;
25345;SDS011;13300;51.032;3.710;2023-01-19T14:56:24;27.77;;;13.07;;
25345;SDS011;13300;51.032;3.710;2023-01-19T14:58:54;28.95;;;14.13;;
25345;SDS011;13300;51.032;3.710;2023-01-19T15:01:24;23.52;;;14.10;;
25345;SDS011;13300;51.032;3.710;2023-01-19T15:03:54;26.98;;;14.18;;
25345;SDS011;13300;51.032;3.710;2023-01-19T15:06:23;28.23;;;14.10;;
25345;SDS011;13300;51.032;3.710;2023-01-19T15:08:50;27.65;;;14.00;;
25345;SDS011;13300;51.032;3.710;2023-01-19T15:11:30;27.02;;;14.05;;
25345;SDS011;13300;51.032;3.710;2023-01-19T15:13:59;31.58;;;14.40;;
25345;SDS011;13300;51.032;3.710;2023-01-19T15:16:25;25.95;;;14.38;;
25345;SDS011;13300;51.032;3.710;2023-01-19T15:18:53;34.13;;;15.45;;
25345;SDS011;13300;51.032;3.710;2023-01-19T15:21:20;31.10;;;16.05;;
25345;SDS011;13300;51.032;3.710;2023-01-19T15:23:52;30.85;;;15.00;;
25345;SDS011;13300;51.032;3.710;2023-01-19T15:26:21;37.60;;;15.02;;
25345;SDS011;13300;51.032;3.710;2023-01-19T15:28:49;30.85;;;15.07;;
25345;SDS011;13300;51.032;3.710;2023-01-19T15:31:15;29.50;;;14.80;;
25345;SDS011;13300;51.032;3.710;2023-01-19T15:33:43;30.85;;;15.50;;
25345;SDS011;13300;51.032;3.710;2023-01-19T15:36:10;30.83;;;15.52;;
25345;SDS011;13300;51.032;3.710;2023-01-19T15:38:41;33.60;;;14.38;;
25345;SDS011;13300;51.032;3.710;2023-01-19T15:41:14;30.20;;;15.30;;
25345;SDS011;13300;51.032;3.710;2023-01-19T15:43:47;28.60;;;14.18;;
25345;SDS011;13300;51.032;3.710;2023-01-19T15:46:13;26.63;;;14.48;;
25345;SDS011;13300;51.032;3.710;2023-01-19T15:48:41;27.85;;;14.32;;
25345;SDS011;13300;51.032;3.710;2023-01-19T15:51:10;32.75;;;15.15;;
25345;SDS011;13300;51.032;3.710;2023-01-19T15:53:37;27.52;;;15.43;;
25345;SDS011;13300;51.032;3.710;2023-01-19T15:56:04;29.67;;;13.98;;
25345;SDS011;13300;51.032;3.710;2023-01-19T15:58:30;30.40;;;15.13;;
25345;SDS011;13300;51.032;3.710;2023-01-19T16:00:56;33.33;;;15.85;;
25345;SDS011;13300;51.032;3.710;2023-01-19T16:03:23;28.98;;;15.80;;
25345;SDS011;13300;51.032;3.710;2023-01-19T16:05:49;33.30;;;16.33;;
25345;SDS011;13300;51.032;3.710;2023-01-19T16:08:15;31.95;;;16.15;;
25345;SDS011;13300;51.032;3.710;2023-01-19T16:10:43;37.83;;;16.45;;
25345;SDS011;13300;51.032;3.710;2023-01-19T16:13:09;35.53;;;16.20;;